sensor_id;sensor_type;location;lat;lon;timestamp;pressure;altitude;pressure_sealevel;temperature;humidity
45991;BME280;31721;41.740;-88.000;2022-07-21T00:00:26;97854.22;;;28.70;40.07
45991;BME280;31721;41.740;-88.000;2022-07-21T00:02:55;97860.91;;;28.92;39.84
45991;BME280;31721;41.740;-88.000;2022-07-21T00:05:24;97864.06;;;28.97;39.80
45991;BME280;31721;41.740;-88.000;2022-07-21T00:07:53;97864.53;;;28.90;39.87
45991;BME280;31721;41.740;-88.000;2022-07-21T00:10:23;97865.93;;;28.83;40.17
45991;BME280;31721;41.740;-88.000;2022-07-21T00:12:52;97869.75;;;28.90;39.94
45991;BME280;31721;41.740;-88.000;2022-07-21T00:15:21;97869.59;;;28.73;40.07
45991;BME280;31721;41.740;-88.000;2022-07-21T00:17:50;97876.26;;;28.66;40.60
45991;BME280;31721;41.740;-88.000;2022-07-21T00:20:20;97872.20;;;28.63;40.50
45991;BME280;31721;41.740;-88.000;2022-07-21T00:22:48;97876.51;;;28.64;40.56
45991;BME280;31721;41.740;-88.000;2022-07-21T00:25:21;97877.62;;;28.31;40.88
45991;BME280;31721;41.740;-88.000;2022-07-21T00:27:49;97878.23;;;28.67;40.70
45991;BME280;31721;41.740;-88.000;2022-07-21T00:30:17;97876.75;;;28.68;40.89
45991;BME280;31721;41.740;-88.000;2022-07-21T00:32:45;97878.99;;;28.64;40.92
45991;BME280;31721;41.740;-88.000;2022-07-21T00:35:12;97882.60;;;28.43;41.22
45991;BME280;31721;41.740;-88.000;2022-07-21T00:37:41;97883.16;;;28.57;41.53
45991;BME280;31721;41.740;-88.000;2022-07-21T00:40:11;97884.00;;;28.39;41.64
45991;BME280;31721;41.740;-88.000;2022-07-21T00:42:39;97885.80;;;28.83;40.72
45991;BME280;31721;41.740;-88.000;2022-07-21T00:45:09;97888.36;;;28.51;41.40
45991;BME280;31721;41.740;-88.000;2022-07-21T00:47:37;97888.75;;;28.51;41.16
45991;BME280;31721;41.740;-88.000;2022-07-21T00:50:07;97888.63;;;28.49;41.12
45991;BME280;31721;41.740;-88.000;2022-07-21T00:52:36;97887.70;;;28.40;41.31
45991;BME280;31721;41.740;-88.000;2022-07-21T00:55:04;97900.27;;;28.44;41.39
45991;BME280;31721;41.740;-88.000;2022-07-21T00:57:32;97896.77;;;28.39;41.65
45991;BME280;31721;41.740;-88.000;2022-07-21T01:00:00;97891.95;;;28.30;41.81
45991;BME280;31721;41.740;-88.000;2022-07-21T01:02:29;97894.22;;;28.20;41.97
45991;BME280;31721;41.740;-88.000;2022-07-21T01:04:56;97893.10;;;28.24;42.10
45991;BME280;31721;41.740;-88.000;2022-07-21T01:07:24;97903.56;;;28.50;42.09
45991;BME280;31721;41.740;-88.000;2022-07-21T01:09:52;97903.65;;;28.14;42.29
45991;BME280;31721;41.740;-88.000;2022-07-21T01:12:20;97906.59;;;28.18;42.52
45991;BME280;31721;41.740;-88.000;2022-07-21T01:14:48;97906.51;;;28.26;42.66
45991;BME280;31721;41.740;-88.000;2022-07-21T01:17:15;97907.61;;;28.13;42.75
45991;BME280;31721;41.740;-88.000;2022-07-21T01:19:44;97905.52;;;28.17;42.87
45991;BME280;31721;41.740;-88.000;2022-07-21T01:22:12;97904.57;;;28.22;42.60
45991;BME280;31721;41.740;-88.000;2022-07-21T01:24:39;97909.91;;;28.23;42.75
45991;BME280;31721;41.740;-88.000;2022-07-21T01:27:06;97910.96;;;28.11;43.03
45991;BME280;31721;41.740;-88.000;2022-07-21T01:29:34;97909.31;;;28.18;42.91
45991;BME280;31721;41.740;-88.000;2022-07-21T01:32:02;97911.06;;;28.14;43.05
45991;BME280;31721;41.740;-88.000;2022-07-21T01:34:30;97911.16;;;28.19;43.15
45991;BME280;31721;41.740;-88.000;2022-07-21T01:36:57;97917.06;;;28.14;43.18
45991;BME280;31721;41.740;-88.000;2022-07-21T01:39:24;97922.34;;;28.15;43.46
45991;BME280;31721;41.740;-88.000;2022-07-21T01:41:53;97925.19;;;28.20;43.15
45991;BME280;31721;41.740;-88.000;2022-07-21T01:44:21;97930.61;;;28.17;43.28
45991;BME280;31721;41.740;-88.000;2022-07-21T01:46:51;97938.16;;;28.07;43.42
45991;BME280;31721;41.740;-88.000;2022-07-21T01:49:20;97942.47;;;28.15;43.09
45991;BME280;31721;41.740;-88.000;2022-07-21T01:51:49;97945.14;;;28.47;43.11
45991;BME280;31721;41.740;-88.000;2022-07-21T01:54:18;97944.74;;;28.36;43.26
45991;BME280;31721;41.740;-88.000;2022-07-21T01:56:45;97948.44;;;28.68;43.14
45991;BME280;31721;41.740;-88.000;2022-07-21T01:59:13;97953.61;;;28.46;43.32
45991;BME280;31721;41.740;-88.000;2022-07-21T02:01:40;97958.11;;;28.38;43.36
45991;BME280;31721;41.740;-88.000;2022-07-21T02:04:08;97957.95;;;28.16;43.21
45991;BME280;31721;41.740;-88.000;2022-07-21T02:06:36;97960.00;;;28.18;43.66
45991;BME280;31721;41.740;-88.000;2022-07-21T02:09:05;97964.07;;;28.24;43.66
45991;BME280;31721;41.740;-88.000;2022-07-21T02:11:33;97964.22;;;28.25;43.85
45991;BME280;31721;41.740;-88.000;2022-07-21T02:14:01;97964.12;;;28.02;43.70
45991;BME280;31721;41.740;-88.000;2022-07-21T02:16:29;97966.75;;;27.98;44.40
45991;BME280;31721;41.740;-88.000;2022-07-21T02:18:57;97971.67;;;28.24;44.14
45991;BME280;31721;41.740;-88.000;2022-07-21T02:21:25;97975.95;;;27.94;44.18
45991;BME280;31721;41.740;-88.000;2022-07-21T02:23:53;97974.21;;;28.13;44.27
45991;BME280;31721;41.740;-88.000;2022-07-21T02:26:21;97975.81;;;27.89;44.29
45991;BME280;31721;41.740;-88.000;2022-07-21T02:28:48;97978.39;;;27.96;44.77
45991;BME280;31721;41.740;-88.000;2022-07-21T02:31:16;97981.12;;;27.94;44.81
45991;BME280;31721;41.740;-88.000;2022-07-21T02:33:43;97981.99;;;28.01;44.77
45991;BME280;31721;41.740;-88.000;2022-07-21T02:36:11;97980.81;;;28.05;44.88
45991;BME280;31721;41.740;-88.000;2022-07-21T02:38:38;97983.49;;;27.84;45.01
45991;BME280;31721;41.740;-88.000;2022-07-21T02:41:07;97984.11;;;27.75;45.07
45991;BME280;31721;41.740;-88.000;2022-07-21T02:43:34;97983.96;;;27.75;44.99
45991;BME280;31721;41.740;-88.000;2022-07-21T02:46:02;97985.79;;;28.00;45.01
45991;BME280;31721;41.740;-88.000;2022-07-21T02:48:29;97980.97;;;28.08;45.02
45991;BME280;31721;41.740;-88.000;2022-07-21T02:50:57;97983.10;;;27.94;44.98
45991;BME280;31721;41.740;-88.000;2022-07-21T02:53:25;97984.15;;;27.85;45.05
45991;BME280;31721;41.740;-88.000;2022-07-21T02:55:53;97986.45;;;27.70;45.40
45991;BME280;31721;41.740;-88.000;2022-07-21T02:58:22;97979.68;;;27.47;45.51
45991;BME280;31721;41.740;-88.000;2022-07-21T03:00:52;97979.46;;;27.41;45.43
45991;BME280;31721;41.740;-88.000;2022-07-21T03:03:21;97983.03;;;27.45;45.82
45991;BME280;31721;41.740;-88.000;2022-07-21T03:05:49;97985.09;;;27.54;45.66
45991;BME280;31721;41.740;-88.000;2022-07-21T03:08:19;97986.33;;;27.53;45.81
45991;BME280;31721;41.740;-88.000;2022-07-21T03:10:46;97991.80;;;27.66;45.82
45991;BME280;31721;41.740;-88.000;2022-07-21T03:13:15;97993.76;;;27.77;45.56
45991;BME280;31721;41.740;-88.000;2022-07-21T03:15:47;97988.32;;;27.78;45.56
45991;BME280;31721;41.740;-88.000;2022-07-21T03:18:16;97987.86;;;27.80;45.76
45991;BME280;31721;41.740;-88.000;2022-07-21T03:20:44;97987.61;;;27.65;45.85
45991;BME280;31721;41.740;-88.000;2022-07-21T03:23:12;97990.10;;;27.30;45.90
45991;BME280;31721;41.740;-88.000;2022-07-21T03:25:40;97984.73;;;27.39;46.37
45991;BME280;31721;41.740;-88.000;2022-07-21T03:28:07;97986.79;;;27.37;46.17
45991;BME280;31721;41.740;-88.000;2022-07-21T03:30:35;97986.81;;;27.37;46.31
45991;BME280;31721;41.740;-88.000;2022-07-21T03:33:03;97987.13;;;27.40;46.45
45991;BME280;31721;41.740;-88.000;2022-07-21T03:35:32;97985.02;;;27.28;46.51
45991;BME280;31721;41.740;-88.000;2022-07-21T03:38:01;97982.56;;;27.20;46.57
45991;BME280;31721;41.740;-88.000;2022-07-21T03:40:31;97978.82;;;27.07;46.54
45991;BME280;31721;41.740;-88.000;2022-07-21T03:43:01;97978.89;;;27.15;46.66
45991;BME280;31721;41.740;-88.000;2022-07-21T03:45:30;97982.94;;;27.03;46.83
45991;BME280;31721;41.740;-88.000;2022-07-21T03:47:58;97985.99;;;26.97;46.89
45991;BME280;31721;41.740;-88.000;2022-07-21T03:50:27;97985.07;;;27.06;46.77
45991;BME280;31721;41.740;-88.000;2022-07-21T03:52:55;97985.65;;;26.83;46.85
45991;BME280;31721;41.740;-88.000;2022-07-21T03:55:23;97986.70;;;26.93;46.74
45991;BME280;31721;41.740;-88.000;2022-07-21T03:57:54;97990.78;;;27.01;46.73
45991;BME280;31721;41.740;-88.000;2022-07-21T04:00:24;97989.97;;;26.87;46.64
45991;BME280;31721;41.740;-88.000;2022-07-21T04:02:52;97990.44;;;26.88;46.81
45991;BME280;31721;41.740;-88.000;2022-07-21T04:05:20;97988.38;;;26.81;46.93
45991;BME280;31721;41.740;-88.000;2022-07-21T04:07:49;97986.52;;;26.71;47.04
45991;BME280;31721;41.740;-88.000;2022-07-21T04:10:20;97983.65;;;26.81;46.90
45991;BME280;31721;41.740;-88.000;2022-07-21T04:12:48;97988.95;;;26.71;46.99
45991;BME280;31721;41.740;-88.000;2022-07-21T04:15:17;97988.49;;;26.50;47.02
45991;BME280;31721;41.740;-88.000;2022-07-21T04:17:45;97993.68;;;26.43;47.23
45991;BME280;31721;41.740;-88.000;2022-07-21T04:20:14;97997.37;;;26.39;47.33
45991;BME280;31721;41.740;-88.000;2022-07-21T04:22:44;97994.54;;;26.27;47.41
45991;BME280;31721;41.740;-88.000;2022-07-21T04:25:12;97994.24;;;26.33;47.31
45991;BME280;31721;41.740;-88.000;2022-07-21T04:27:41;97991.03;;;26.44;47.49
45991;BME280;31721;41.740;-88.000;2022-07-21T04:30:12;97995.06;;;26.31;47.35
45991;BME280;31721;41.740;-88.000;2022-07-21T04:32:39;97996.17;;;26.29;47.44
45991;BME280;31721;41.740;-88.000;2022-07-21T04:35:08;97994.18;;;26.32;47.44
45991;BME280;31721;41.740;-88.000;2022-07-21T04:37:36;97995.88;;;26.30;47.42
45991;BME280;31721;41.740;-88.000;2022-07-21T04:40:06;98000.58;;;26.24;47.30
45991;BME280;31721;41.740;-88.000;2022-07-21T04:42:35;97999.11;;;26.20;47.48
45991;BME280;31721;41.740;-88.000;2022-07-21T04:45:03;97997.46;;;26.16;47.12
45991;BME280;31721;41.740;-88.000;2022-07-21T04:47:32;97997.49;;;25.98;47.46
45991;BME280;31721;41.740;-88.000;2022-07-21T04:49:59;97994.66;;;25.74;47.34
45991;BME280;31721;41.740;-88.000;2022-07-21T04:52:27;97989.48;;;25.72;47.33
45991;BME280;31721;41.740;-88.000;2022-07-21T04:54:55;97993.38;;;25.51;47.62
45991;BME280;31721;41.740;-88.000;2022-07-21T04:57:22;97990.69;;;25.53;47.61
45991;BME280;31721;41.740;-88.000;2022-07-21T04:59:50;97987.66;;;25.41;47.81
45991;BME280;31721;41.740;-88.000;2022-07-21T05:05:05;97992.20;;;25.48;47.55
45991;BME280;31721;41.740;-88.000;2022-07-21T05:07:33;97994.28;;;25.56;47.29
45991;BME280;31721;41.740;-88.000;2022-07-21T05:10:06;97998.88;;;25.54;47.25
45991;BME280;31721;41.740;-88.000;2022-07-21T05:12:35;98002.01;;;25.71;47.24
45991;BME280;31721;41.740;-88.000;2022-07-21T05:15:04;98004.12;;;25.68;47.14
45991;BME280;31721;41.740;-88.000;2022-07-21T05:17:32;98002.03;;;25.70;47.01
45991;BME280;31721;41.740;-88.000;2022-07-21T05:20:00;98003.14;;;25.49;47.13
45991;BME280;31721;41.740;-88.000;2022-07-21T05:22:27;97998.14;;;25.28;47.41
45991;BME280;31721;41.740;-88.000;2022-07-21T05:24:55;97996.74;;;25.21;47.46
45991;BME280;31721;41.740;-88.000;2022-07-21T05:27:22;97991.33;;;25.29;47.45
45991;BME280;31721;41.740;-88.000;2022-07-21T05:29:50;97995.47;;;25.29;47.53
45991;BME280;31721;41.740;-88.000;2022-07-21T05:32:18;97997.10;;;25.07;47.66
45991;BME280;31721;41.740;-88.000;2022-07-21T05:34:46;97997.90;;;24.90;47.90
45991;BME280;31721;41.740;-88.000;2022-07-21T05:37:13;98003.46;;;25.04;47.98
45991;BME280;31721;41.740;-88.000;2022-07-21T05:39:41;98006.38;;;24.93;47.76
45991;BME280;31721;41.740;-88.000;2022-07-21T05:42:08;98006.60;;;24.91;47.80
45991;BME280;31721;41.740;-88.000;2022-07-21T05:44:36;98005.26;;;24.76;47.84
45991;BME280;31721;41.740;-88.000;2022-07-21T05:47:04;97999.11;;;24.71;47.97
45991;BME280;31721;41.740;-88.000;2022-07-21T05:49:32;97998.98;;;24.69;48.09
45991;BME280;31721;41.740;-88.000;2022-07-21T05:54:48;98005.54;;;24.51;48.21
45991;BME280;31721;41.740;-88.000;2022-07-21T05:57:15;98007.01;;;24.64;47.88
45991;BME280;31721;41.740;-88.000;2022-07-21T05:59:44;98007.70;;;24.47;47.78
45991;BME280;31721;41.740;-88.000;2022-07-21T06:02:12;98009.98;;;24.58;47.55
45991;BME280;31721;41.740;-88.000;2022-07-21T06:04:40;98007.80;;;24.52;47.60
45991;BME280;31721;41.740;-88.000;2022-07-21T06:07:07;98006.39;;;24.38;47.50
45991;BME280;31721;41.740;-88.000;2022-07-21T06:09:35;98006.91;;;24.46;47.58
45991;BME280;31721;41.740;-88.000;2022-07-21T06:12:03;98005.07;;;24.43;47.62
45991;BME280;31721;41.740;-88.000;2022-07-21T06:14:31;98005.10;;;24.39;47.42
45991;BME280;31721;41.740;-88.000;2022-07-21T06:16:59;98003.13;;;24.29;47.40
45991;BME280;31721;41.740;-88.000;2022-07-21T06:19:32;98007.11;;;24.29;47.52
45991;BME280;31721;41.740;-88.000;2022-07-21T06:21:59;98009.19;;;24.36;47.54
45991;BME280;31721;41.740;-88.000;2022-07-21T06:24:27;98008.36;;;24.23;47.53
45991;BME280;31721;41.740;-88.000;2022-07-21T06:26:55;98007.98;;;24.14;47.63
45991;BME280;31721;41.740;-88.000;2022-07-21T06:29:22;98006.92;;;24.16;47.55
45991;BME280;31721;41.740;-88.000;2022-07-21T06:31:50;98000.73;;;24.09;47.60
45991;BME280;31721;41.740;-88.000;2022-07-21T06:34:17;98003.90;;;24.23;47.41
45991;BME280;31721;41.740;-88.000;2022-07-21T06:36:45;97999.92;;;24.23;47.55
45991;BME280;31721;41.740;-88.000;2022-07-21T06:39:13;98005.73;;;24.23;47.36
45991;BME280;31721;41.740;-88.000;2022-07-21T06:41:41;98002.87;;;24.15;47.34
45991;BME280;31721;41.740;-88.000;2022-07-21T06:44:08;98002.42;;;24.13;47.33
45991;BME280;31721;41.740;-88.000;2022-07-21T06:46:36;98002.59;;;24.07;47.25
45991;BME280;31721;41.740;-88.000;2022-07-21T06:49:04;98000.57;;;24.07;47.41
45991;BME280;31721;41.740;-88.000;2022-07-21T06:51:32;98001.98;;;24.06;47.33
45991;BME280;31721;41.740;-88.000;2022-07-21T06:53:59;98003.48;;;24.08;47.22
45991;BME280;31721;41.740;-88.000;2022-07-21T06:56:27;98000.55;;;24.08;47.14
45991;BME280;31721;41.740;-88.000;2022-07-21T06:58:54;98002.40;;;23.95;47.18
45991;BME280;31721;41.740;-88.000;2022-07-21T07:01:22;98004.88;;;23.81;47.28
45991;BME280;31721;41.740;-88.000;2022-07-21T07:03:49;98000.14;;;23.95;47.32
45991;BME280;31721;41.740;-88.000;2022-07-21T07:06:17;98000.40;;;23.83;47.37
45991;BME280;31721;41.740;-88.000;2022-07-21T07:08:45;97998.96;;;23.83;47.44
45991;BME280;31721;41.740;-88.000;2022-07-21T07:11:12;98002.42;;;23.80;47.38
45991;BME280;31721;41.740;-88.000;2022-07-21T07:13:40;98007.34;;;23.73;47.24
45991;BME280;31721;41.740;-88.000;2022-07-21T07:16:08;98010.14;;;23.69;47.38
45991;BME280;31721;41.740;-88.000;2022-07-21T07:18:36;98012.99;;;23.64;47.40
45991;BME280;31721;41.740;-88.000;2022-07-21T07:21:04;98016.81;;;23.68;47.49
45991;BME280;31721;41.740;-88.000;2022-07-21T07:23:31;98022.02;;;23.54;47.56
45991;BME280;31721;41.740;-88.000;2022-07-21T07:25:59;98019.97;;;23.51;47.70
45991;BME280;31721;41.740;-88.000;2022-07-21T07:28:26;98022.76;;;23.48;47.69
45991;BME280;31721;41.740;-88.000;2022-07-21T07:30:54;98023.94;;;23.65;47.61
45991;BME280;31721;41.740;-88.000;2022-07-21T07:33:22;98027.59;;;23.64;47.42
45991;BME280;31721;41.740;-88.000;2022-07-21T07:35:49;98031.05;;;23.51;47.26
45991;BME280;31721;41.740;-88.000;2022-07-21T07:38:17;98034.47;;;23.39;47.42
45991;BME280;31721;41.740;-88.000;2022-07-21T07:40:45;98035.39;;;23.45;47.51
45991;BME280;31721;41.740;-88.000;2022-07-21T07:43:13;98035.50;;;23.40;47.43
45991;BME280;31721;41.740;-88.000;2022-07-21T07:45:40;98034.08;;;23.29;47.53
45991;BME280;31721;41.740;-88.000;2022-07-21T07:48:08;98029.42;;;23.20;47.54
45991;BME280;31721;41.740;-88.000;2022-07-21T07:50:36;98027.90;;;23.24;47.68
45991;BME280;31721;41.740;-88.000;2022-07-21T07:53:03;98025.74;;;23.24;47.61
45991;BME280;31721;41.740;-88.000;2022-07-21T07:55:31;98025.39;;;23.22;47.57
45991;BME280;31721;41.740;-88.000;2022-07-21T07:57:59;98032.54;;;23.15;47.60
45991;BME280;31721;41.740;-88.000;2022-07-21T08:00:26;98036.89;;;23.15;47.59
45991;BME280;31721;41.740;-88.000;2022-07-21T08:02:54;98048.22;;;23.11;47.56
45991;BME280;31721;41.740;-88.000;2022-07-21T08:05:21;98048.68;;;22.96;47.49
45991;BME280;31721;41.740;-88.000;2022-07-21T08:07:49;98051.83;;;22.88;47.50
45991;BME280;31721;41.740;-88.000;2022-07-21T08:10:17;98051.89;;;22.88;47.72
45991;BME280;31721;41.740;-88.000;2022-07-21T08:12:44;98050.26;;;22.85;47.70
45991;BME280;31721;41.740;-88.000;2022-07-21T08:15:12;98046.94;;;22.78;47.87
45991;BME280;31721;41.740;-88.000;2022-07-21T08:17:40;98047.23;;;22.73;47.92
45991;BME280;31721;41.740;-88.000;2022-07-21T08:20:08;98048.75;;;22.71;47.89
45991;BME280;31721;41.740;-88.000;2022-07-21T08:22:36;98054.97;;;22.70;47.86
45991;BME280;31721;41.740;-88.000;2022-07-21T08:25:05;98055.70;;;22.69;47.79
45991;BME280;31721;41.740;-88.000;2022-07-21T08:27:32;98056.13;;;22.65;47.80
45991;BME280;31721;41.740;-88.000;2022-07-21T08:30:00;98052.50;;;22.57;47.63
45991;BME280;31721;41.740;-88.000;2022-07-21T08:32:27;98052.37;;;22.50;47.86
45991;BME280;31721;41.740;-88.000;2022-07-21T08:34:54;98046.76;;;22.45;47.94
45991;BME280;31721;41.740;-88.000;2022-07-21T08:37:23;98056.09;;;22.39;48.00
45991;BME280;31721;41.740;-88.000;2022-07-21T08:39:50;98064.29;;;22.33;48.21
45991;BME280;31721;41.740;-88.000;2022-07-21T08:42:18;98067.27;;;22.26;48.21
45991;BME280;31721;41.740;-88.000;2022-07-21T08:44:45;98069.36;;;22.19;48.30
45991;BME280;31721;41.740;-88.000;2022-07-21T08:47:13;98072.11;;;22.19;48.41
45991;BME280;31721;41.740;-88.000;2022-07-21T08:49:40;98079.74;;;22.15;48.24
45991;BME280;31721;41.740;-88.000;2022-07-21T08:52:09;98085.75;;;22.11;48.40
45991;BME280;31721;41.740;-88.000;2022-07-21T08:54:36;98092.82;;;22.04;48.42
45991;BME280;31721;41.740;-88.000;2022-07-21T08:57:04;98099.05;;;21.98;48.49
45991;BME280;31721;41.740;-88.000;2022-07-21T08:59:31;98099.61;;;21.96;48.56
45991;BME280;31721;41.740;-88.000;2022-07-21T09:01:59;98091.75;;;21.91;48.56
45991;BME280;31721;41.740;-88.000;2022-07-21T09:04:29;98091.53;;;21.87;48.62
45991;BME280;31721;41.740;-88.000;2022-07-21T09:06:59;98088.65;;;21.82;48.68
45991;BME280;31721;41.740;-88.000;2022-07-21T09:09:33;98090.10;;;21.79;48.70
45991;BME280;31721;41.740;-88.000;2022-07-21T09:12:03;98094.57;;;21.80;48.75
45991;BME280;31721;41.740;-88.000;2022-07-21T09:14:32;98094.01;;;21.85;48.91
45991;BME280;31721;41.740;-88.000;2022-07-21T09:17:03;98087.24;;;21.64;48.92
45991;BME280;31721;41.740;-88.000;2022-07-21T09:19:32;98089.52;;;21.61;48.86
45991;BME280;31721;41.740;-88.000;2022-07-21T09:22:01;98091.67;;;21.78;48.84
45991;BME280;31721;41.740;-88.000;2022-07-21T09:24:31;98095.25;;;21.67;48.73
45991;BME280;31721;41.740;-88.000;2022-07-21T09:27:06;98102.57;;;21.52;48.84
45991;BME280;31721;41.740;-88.000;2022-07-21T09:29:38;98102.35;;;21.46;48.86
45991;BME280;31721;41.740;-88.000;2022-07-21T09:32:24;98106.76;;;21.52;48.95
45991;BME280;31721;41.740;-88.000;2022-07-21T09:34:55;98111.58;;;21.50;48.99
45991;BME280;31721;41.740;-88.000;2022-07-21T09:37:25;98110.22;;;21.57;48.99
45991;BME280;31721;41.740;-88.000;2022-07-21T09:39:55;98108.88;;;21.46;49.01
45991;BME280;31721;41.740;-88.000;2022-07-21T09:42:26;98109.21;;;21.50;49.06
45991;BME280;31721;41.740;-88.000;2022-07-21T09:44:56;98109.48;;;21.53;49.01
45991;BME280;31721;41.740;-88.000;2022-07-21T09:47:27;98108.92;;;21.55;48.89
45991;BME280;31721;41.740;-88.000;2022-07-21T09:49:56;98116.04;;;21.54;48.84
45991;BME280;31721;41.740;-88.000;2022-07-21T09:52:27;98126.00;;;21.63;48.66
45991;BME280;31721;41.740;-88.000;2022-07-21T09:54:57;98133.86;;;21.49;48.71
45991;BME280;31721;41.740;-88.000;2022-07-21T09:57:26;98141.57;;;21.50;48.72
45991;BME280;31721;41.740;-88.000;2022-07-21T09:59:55;98145.70;;;21.52;48.86
45991;BME280;31721;41.740;-88.000;2022-07-21T10:02:25;98149.62;;;21.46;48.67
45991;BME280;31721;41.740;-88.000;2022-07-21T10:04:57;98153.69;;;21.31;48.93
45991;BME280;31721;41.740;-88.000;2022-07-21T10:07:25;98158.96;;;21.28;49.05
45991;BME280;31721;41.740;-88.000;2022-07-21T10:09:54;98164.13;;;21.19;49.34
45991;BME280;31721;41.740;-88.000;2022-07-21T10:12:23;98166.98;;;21.15;49.41
45991;BME280;31721;41.740;-88.000;2022-07-21T10:14:51;98167.73;;;21.19;49.41
45991;BME280;31721;41.740;-88.000;2022-07-21T10:17:21;98168.06;;;21.07;49.50
45991;BME280;31721;41.740;-88.000;2022-07-21T10:20:00;98179.60;;;21.08;49.47
45991;BME280;31721;41.740;-88.000;2022-07-21T10:22:44;98181.16;;;20.99;49.71
45991;BME280;31721;41.740;-88.000;2022-07-21T10:25:18;98184.16;;;20.93;49.71
45991;BME280;31721;41.740;-88.000;2022-07-21T10:28:12;98187.83;;;20.83;49.77
45991;BME280;31721;41.740;-88.000;2022-07-21T10:30:43;98189.88;;;20.89;49.91
45991;BME280;31721;41.740;-88.000;2022-07-21T10:33:11;98191.39;;;20.91;50.05
45991;BME280;31721;41.740;-88.000;2022-07-21T10:35:41;98191.52;;;20.86;50.11
45991;BME280;31721;41.740;-88.000;2022-07-21T10:38:25;98195.39;;;20.77;50.20
45991;BME280;31721;41.740;-88.000;2022-07-21T10:40:53;98193.43;;;20.81;50.23
45991;BME280;31721;41.740;-88.000;2022-07-21T10:43:38;98201.27;;;20.77;50.21
45991;BME280;31721;41.740;-88.000;2022-07-21T10:46:59;98203.16;;;20.72;50.18
45991;BME280;31721;41.740;-88.000;2022-07-21T10:49:43;98200.82;;;20.72;50.52
45991;BME280;31721;41.740;-88.000;2022-07-21T10:53:18;98207.68;;;20.64;50.48
45991;BME280;31721;41.740;-88.000;2022-07-21T10:55:47;98209.36;;;20.65;50.62
45991;BME280;31721;41.740;-88.000;2022-07-21T10:58:23;98213.70;;;20.60;50.77
45991;BME280;31721;41.740;-88.000;2022-07-21T11:00:52;98213.95;;;20.61;50.85
45991;BME280;31721;41.740;-88.000;2022-07-21T11:03:23;98213.08;;;20.58;51.18
45991;BME280;31721;41.740;-88.000;2022-07-21T11:06:24;98216.76;;;20.59;51.19
45991;BME280;31721;41.740;-88.000;2022-07-21T11:09:04;98224.41;;;20.58;51.20
45991;BME280;31721;41.740;-88.000;2022-07-21T11:11:33;98226.89;;;20.69;51.28
45991;BME280;31721;41.740;-88.000;2022-07-21T11:14:07;98229.02;;;20.71;51.22
45991;BME280;31721;41.740;-88.000;2022-07-21T11:17:09;98233.22;;;20.79;51.43
45991;BME280;31721;41.740;-88.000;2022-07-21T11:19:42;98241.97;;;20.69;51.18
45991;BME280;31721;41.740;-88.000;2022-07-21T11:22:12;98245.59;;;20.66;51.16
45991;BME280;31721;41.740;-88.000;2022-07-21T11:24:42;98248.51;;;20.70;51.38
45991;BME280;31721;41.740;-88.000;2022-07-21T11:27:11;98252.12;;;20.68;51.42
45991;BME280;31721;41.740;-88.000;2022-07-21T11:29:41;98258.73;;;20.69;51.61
45991;BME280;31721;41.740;-88.000;2022-07-21T11:32:09;98262.24;;;20.75;51.74
45991;BME280;31721;41.740;-88.000;2022-07-21T11:34:40;98261.19;;;20.80;51.57
45991;BME280;31721;41.740;-88.000;2022-07-21T11:37:09;98266.16;;;20.96;51.63
45991;BME280;31721;41.740;-88.000;2022-07-21T11:39:37;98267.21;;;20.93;51.43
45991;BME280;31721;41.740;-88.000;2022-07-21T11:42:07;98264.89;;;20.89;51.56
45991;BME280;31721;41.740;-88.000;2022-07-21T11:44:35;98270.85;;;20.96;51.80
45991;BME280;31721;41.740;-88.000;2022-07-21T11:47:04;98274.86;;;21.10;51.92
45991;BME280;31721;41.740;-88.000;2022-07-21T11:49:33;98280.35;;;21.10;51.86
45991;BME280;31721;41.740;-88.000;2022-07-21T11:52:02;98282.13;;;21.18;51.81
45991;BME280;31721;41.740;-88.000;2022-07-21T11:54:32;98281.16;;;21.24;51.87
45991;BME280;31721;41.740;-88.000;2022-07-21T11:57:03;98285.89;;;21.35;51.86
45991;BME280;31721;41.740;-88.000;2022-07-21T11:59:31;98291.39;;;21.34;51.84
45991;BME280;31721;41.740;-88.000;2022-07-21T12:02:03;98299.06;;;21.37;52.04
45991;BME280;31721;41.740;-88.000;2022-07-21T12:04:36;98301.58;;;21.46;52.15
45991;BME280;31721;41.740;-88.000;2022-07-21T12:07:06;98304.81;;;21.39;52.04
45991;BME280;31721;41.740;-88.000;2022-07-21T12:09:34;98302.08;;;21.30;52.50
45991;BME280;31721;41.740;-88.000;2022-07-21T12:12:04;98303.00;;;21.53;52.53
45991;BME280;31721;41.740;-88.000;2022-07-21T12:14:49;98303.03;;;21.54;52.72
45991;BME280;31721;41.740;-88.000;2022-07-21T12:17:31;98305.55;;;21.62;52.68
45991;BME280;31721;41.740;-88.000;2022-07-21T12:19:59;98311.79;;;21.80;52.80
45991;BME280;31721;41.740;-88.000;2022-07-21T12:22:37;98315.65;;;21.89;52.36
45991;BME280;31721;41.740;-88.000;2022-07-21T12:25:06;98326.93;;;21.99;52.55
45991;BME280;31721;41.740;-88.000;2022-07-21T12:27:35;98330.33;;;22.09;52.73
45991;BME280;31721;41.740;-88.000;2022-07-21T12:30:04;98335.05;;;22.11;52.82
45991;BME280;31721;41.740;-88.000;2022-07-21T12:32:43;98333.65;;;22.19;52.65
45991;BME280;31721;41.740;-88.000;2022-07-21T12:35:21;98337.46;;;22.29;52.59
45991;BME280;31721;41.740;-88.000;2022-07-21T12:37:55;98338.08;;;22.38;52.55
45991;BME280;31721;41.740;-88.000;2022-07-21T12:40:25;98342.71;;;22.48;52.54
45991;BME280;31721;41.740;-88.000;2022-07-21T12:43:04;98340.97;;;22.85;52.37
45991;BME280;31721;41.740;-88.000;2022-07-21T12:45:45;98343.17;;;22.81;52.10
45991;BME280;31721;41.740;-88.000;2022-07-21T12:48:15;98349.93;;;22.92;51.77
45991;BME280;31721;41.740;-88.000;2022-07-21T12:51:02;98353.98;;;22.98;52.06
45991;BME280;31721;41.740;-88.000;2022-07-21T12:53:32;98351.99;;;23.11;51.83
45991;BME280;31721;41.740;-88.000;2022-07-21T12:56:00;98353.14;;;23.18;52.08
45991;BME280;31721;41.740;-88.000;2022-07-21T12:58:28;98351.81;;;23.35;51.75